sensor_id;sensor_type;location;lat;lon;timestamp;P1;durP1;ratioP1;P2;durP2;ratioP2
25279;SDS011;13225;47.804;12.116;2023-04-06T00:00:55;19.52;;;9.40;;
25279;SDS011;13225;47.804;12.116;2023-04-06T00:03:21;17.20;;;9.77;;
25279;SDS011;13225;47.804;12.116;2023-04-06T00:05:47;15.02;;;9.25;;
25279;SDS011;13225;47.804;12.116;2023-04-06T00:08:13;15.65;;;9.27;;
25279;SDS011;13225;47.804;12.116;2023-04-06T00:10:39;17.58;;;9.57;;
25279;SDS011;13225;47.804;12.116;2023-04-06T00:13:05;16.20;;;10.00;;
25279;SDS011;13225;47.804;12.116;2023-04-06T00:15:31;17.80;;;9.65;;
25279;SDS011;13225;47.804;12.116;2023-04-06T00:17:57;16.38;;;9.60;;
25279;SDS011;13225;47.804;12.116;2023-04-06T00:20:23;17.75;;;10.10;;
25279;SDS011;13225;47.804;12.116;2023-04-06T00:22:49;15.93;;;9.68;;
25279;SDS011;13225;47.804;12.116;2023-04-06T00:25:15;18.90;;;9.35;;
25279;SDS011;13225;47.804;12.116;2023-04-06T00:27:41;17.35;;;9.88;;
25279;SDS011;13225;47.804;12.116;2023-04-06T00:30:07;17.30;;;9.40;;
25279;SDS011;13225;47.804;12.116;2023-04-06T00:32:34;16.73;;;9.40;;
25279;SDS011;13225;47.804;12.116;2023-04-06T00:35:02;16.95;;;9.63;;
25279;SDS011;13225;47.804;12.116;2023-04-06T00:37:28;16.05;;;9.25;;
25279;SDS011;13225;47.804;12.116;2023-04-06T00:39:53;15.02;;;8.65;;
25279;SDS011;13225;47.804;12.116;2023-04-06T00:42:19;16.83;;;9.68;;
25279;SDS011;13225;47.804;12.116;2023-04-06T00:44:54;18.08;;;9.63;;
25279;SDS011;13225;47.804;12.116;2023-04-06T00:47:21;15.93;;;9.60;;
25279;SDS011;13225;47.804;12.116;2023-04-06T00:49:47;17.23;;;9.38;;
25279;SDS011;13225;47.804;12.116;2023-04-06T00:52:13;19.08;;;10.15;;
25279;SDS011;13225;47.804;12.116;2023-04-06T00:54:39;16.65;;;9.38;;
25279;SDS011;13225;47.804;12.116;2023-04-06T00:57:05;19.25;;;9.77;;
25279;SDS011;13225;47.804;12.116;2023-04-06T00:59:31;15.85;;;9.15;;
25279;SDS011;13225;47.804;12.116;2023-04-06T01:01:56;25.77;;;12.23;;
25279;SDS011;13225;47.804;12.116;2023-04-06T01:04:22;31.27;;;13.38;;
25279;SDS011;13225;47.804;12.116;2023-04-06T01:06:49;26.65;;;11.27;;
25279;SDS011;13225;47.804;12.116;2023-04-06T01:09:15;103.80;;;24.60;;
25279;SDS011;13225;47.804;12.116;2023-04-06T01:11:41;56.63;;;17.23;;
25279;SDS011;13225;47.804;12.116;2023-04-06T01:14:07;15.88;;;10.13;;
25279;SDS011;13225;47.804;12.116;2023-04-06T01:16:33;18.13;;;10.85;;
25279;SDS011;13225;47.804;12.116;2023-04-06T01:18:59;17.20;;;10.05;;
25279;SDS011;13225;47.804;12.116;2023-04-06T01:21:25;22.33;;;11.18;;
25279;SDS011;13225;47.804;12.116;2023-04-06T01:23:51;19.38;;;10.00;;
25279;SDS011;13225;47.804;12.116;2023-04-06T01:26:17;21.70;;;10.07;;
25279;SDS011;13225;47.804;12.116;2023-04-06T01:28:42;19.77;;;10.48;;
25279;SDS011;13225;47.804;12.116;2023-04-06T01:31:09;26.42;;;11.80;;
25279;SDS011;13225;47.804;12.116;2023-04-06T01:33:36;30.65;;;11.60;;
25279;SDS011;13225;47.804;12.116;2023-04-06T01:36:02;27.02;;;11.73;;
25279;SDS011;13225;47.804;12.116;2023-04-06T01:38:29;19.52;;;10.23;;
25279;SDS011;13225;47.804;12.116;2023-04-06T01:40:54;21.10;;;10.27;;
25279;SDS011;13225;47.804;12.116;2023-04-06T01:43:20;19.13;;;10.15;;
25279;SDS011;13225;47.804;12.116;2023-04-06T01:45:46;18.80;;;10.07;;
25279;SDS011;13225;47.804;12.116;2023-04-06T01:48:11;18.10;;;10.07;;
25279;SDS011;13225;47.804;12.116;2023-04-06T01:50:37;18.25;;;10.32;;
25279;SDS011;13225;47.804;12.116;2023-04-06T01:53:02;18.67;;;10.32;;
25279;SDS011;13225;47.804;12.116;2023-04-06T01:55:28;17.75;;;10.02;;
25279;SDS011;13225;47.804;12.116;2023-04-06T01:57:54;18.48;;;9.32;;
25279;SDS011;13225;47.804;12.116;2023-04-06T02:00:20;20.20;;;11.23;;
25279;SDS011;13225;47.804;12.116;2023-04-06T02:02:45;16.10;;;9.38;;
25279;SDS011;13225;47.804;12.116;2023-04-06T02:05:11;17.67;;;10.23;;
25279;SDS011;13225;47.804;12.116;2023-04-06T02:07:37;19.58;;;10.25;;
25279;SDS011;13225;47.804;12.116;2023-04-06T02:10:02;17.33;;;9.57;;
25279;SDS011;13225;47.804;12.116;2023-04-06T02:12:28;18.83;;;10.80;;
25279;SDS011;13225;47.804;12.116;2023-04-06T02:14:54;21.70;;;11.02;;
25279;SDS011;13225;47.804;12.116;2023-04-06T02:17:20;18.83;;;10.73;;
25279;SDS011;13225;47.804;12.116;2023-04-06T02:19:45;20.50;;;10.65;;
25279;SDS011;13225;47.804;12.116;2023-04-06T02:22:11;19.58;;;11.05;;
25279;SDS011;13225;47.804;12.116;2023-04-06T02:24:36;20.02;;;10.30;;
25279;SDS011;13225;47.804;12.116;2023-04-06T02:27:03;19.83;;;10.77;;
25279;SDS011;13225;47.804;12.116;2023-04-06T02:29:29;16.15;;;9.70;;
25279;SDS011;13225;47.804;12.116;2023-04-06T02:31:55;19.58;;;9.90;;
25279;SDS011;13225;47.804;12.116;2023-04-06T02:34:20;20.63;;;9.93;;
25279;SDS011;13225;47.804;12.116;2023-04-06T02:36:46;17.67;;;10.27;;
25279;SDS011;13225;47.804;12.116;2023-04-06T02:39:12;19.38;;;9.88;;
25279;SDS011;13225;47.804;12.116;2023-04-06T02:41:38;16.05;;;9.43;;
25279;SDS011;13225;47.804;12.116;2023-04-06T02:44:06;17.92;;;9.60;;
25279;SDS011;13225;47.804;12.116;2023-04-06T02:46:32;19.23;;;9.77;;
25279;SDS011;13225;47.804;12.116;2023-04-06T02:48:58;17.58;;;9.65;;
25279;SDS011;13225;47.804;12.116;2023-04-06T02:51:25;18.27;;;10.18;;
25279;SDS011;13225;47.804;12.116;2023-04-06T02:53:51;16.75;;;9.60;;
25279;SDS011;13225;47.804;12.116;2023-04-06T02:56:17;19.40;;;9.82;;
25279;SDS011;13225;47.804;12.116;2023-04-06T02:58:42;17.02;;;10.25;;
25279;SDS011;13225;47.804;12.116;2023-04-06T03:01:08;21.05;;;10.80;;
25279;SDS011;13225;47.804;12.116;2023-04-06T03:03:34;19.30;;;9.98;;
25279;SDS011;13225;47.804;12.116;2023-04-06T03:05:59;20.05;;;10.60;;
25279;SDS011;13225;47.804;12.116;2023-04-06T03:08:25;18.45;;;9.98;;
25279;SDS011;13225;47.804;12.116;2023-04-06T03:10:50;20.30;;;10.60;;
25279;SDS011;13225;47.804;12.116;2023-04-06T03:13:16;20.73;;;10.65;;
25279;SDS011;13225;47.804;12.116;2023-04-06T03:15:42;19.95;;;10.70;;
25279;SDS011;13225;47.804;12.116;2023-04-06T03:18:07;17.17;;;10.02;;
25279;SDS011;13225;47.804;12.116;2023-04-06T03:20:33;17.95;;;10.07;;
25279;SDS011;13225;47.804;12.116;2023-04-06T03:22:59;19.65;;;9.82;;
25279;SDS011;13225;47.804;12.116;2023-04-06T03:25:25;22.98;;;9.80;;
25279;SDS011;13225;47.804;12.116;2023-04-06T03:27:50;22.60;;;10.73;;
25279;SDS011;13225;47.804;12.116;2023-04-06T03:30:16;20.27;;;11.30;;
25279;SDS011;13225;47.804;12.116;2023-04-06T03:32:43;20.45;;;10.38;;
25279;SDS011;13225;47.804;12.116;2023-04-06T03:35:09;19.08;;;10.25;;
25279;SDS011;13225;47.804;12.116;2023-04-06T03:37:35;19.63;;;11.02;;
25279;SDS011;13225;47.804;12.116;2023-04-06T03:40:01;19.70;;;10.38;;
25279;SDS011;13225;47.804;12.116;2023-04-06T03:42:26;20.70;;;10.82;;
25279;SDS011;13225;47.804;12.116;2023-04-06T03:44:53;19.50;;;9.63;;
25279;SDS011;13225;47.804;12.116;2023-04-06T03:47:19;27.48;;;11.90;;
25279;SDS011;13225;47.804;12.116;2023-04-06T03:49:45;23.13;;;11.40;;
25279;SDS011;13225;47.804;12.116;2023-04-06T03:52:10;18.88;;;10.23;;
25279;SDS011;13225;47.804;12.116;2023-04-06T03:54:36;18.40;;;10.13;;
25279;SDS011;13225;47.804;12.116;2023-04-06T03:57:02;23.13;;;11.63;;
25279;SDS011;13225;47.804;12.116;2023-04-06T03:59:28;23.17;;;11.35;;
25279;SDS011;13225;47.804;12.116;2023-04-06T04:01:54;20.73;;;10.88;;
25279;SDS011;13225;47.804;12.116;2023-04-06T04:04:20;20.20;;;10.95;;
25279;SDS011;13225;47.804;12.116;2023-04-06T04:06:45;19.98;;;11.00;;
25279;SDS011;13225;47.804;12.116;2023-04-06T04:09:11;26.95;;;11.75;;
25279;SDS011;13225;47.804;12.116;2023-04-06T04:11:37;20.58;;;10.80;;
25279;SDS011;13225;47.804;12.116;2023-04-06T04:14:02;23.60;;;11.20;;
25279;SDS011;13225;47.804;12.116;2023-04-06T04:16:28;20.20;;;10.75;;
25279;SDS011;13225;47.804;12.116;2023-04-06T04:18:54;25.65;;;10.70;;
25279;SDS011;13225;47.804;12.116;2023-04-06T04:21:20;19.95;;;10.82;;
25279;SDS011;13225;47.804;12.116;2023-04-06T04:23:45;31.02;;;12.82;;
25279;SDS011;13225;47.804;12.116;2023-04-06T04:26:11;27.98;;;13.00;;
25279;SDS011;13225;47.804;12.116;2023-04-06T04:28:37;23.65;;;12.38;;
25279;SDS011;13225;47.804;12.116;2023-04-06T04:31:02;25.92;;;12.77;;
25279;SDS011;13225;47.804;12.116;2023-04-06T04:33:28;24.30;;;12.95;;
25279;SDS011;13225;47.804;12.116;2023-04-06T04:35:53;22.50;;;11.55;;
25279;SDS011;13225;47.804;12.116;2023-04-06T04:38:19;21.00;;;11.30;;
25279;SDS011;13225;47.804;12.116;2023-04-06T04:40:45;20.98;;;11.48;;
25279;SDS011;13225;47.804;12.116;2023-04-06T04:43:11;19.85;;;10.25;;
25279;SDS011;13225;47.804;12.116;2023-04-06T04:45:36;22.20;;;11.52;;
25279;SDS011;13225;47.804;12.116;2023-04-06T04:48:02;22.00;;;11.38;;
25279;SDS011;13225;47.804;12.116;2023-04-06T04:50:29;22.40;;;11.35;;
25279;SDS011;13225;47.804;12.116;2023-04-06T04:52:55;22.75;;;10.73;;
25279;SDS011;13225;47.804;12.116;2023-04-06T04:55:21;25.85;;;11.75;;
25279;SDS011;13225;47.804;12.116;2023-04-06T04:57:46;29.88;;;14.15;;
25279;SDS011;13225;47.804;12.116;2023-04-06T05:00:12;27.15;;;13.77;;
25279;SDS011;13225;47.804;12.116;2023-04-06T05:02:38;30.83;;;13.68;;
25279;SDS011;13225;47.804;12.116;2023-04-06T05:05:04;26.65;;;11.52;;
25279;SDS011;13225;47.804;12.116;2023-04-06T05:07:30;23.60;;;11.50;;
25279;SDS011;13225;47.804;12.116;2023-04-06T05:09:56;20.98;;;11.45;;
25279;SDS011;13225;47.804;12.116;2023-04-06T05:12:21;23.75;;;11.13;;
25279;SDS011;13225;47.804;12.116;2023-04-06T05:14:47;23.75;;;11.98;;
25279;SDS011;13225;47.804;12.116;2023-04-06T05:17:13;25.35;;;11.25;;
25279;SDS011;13225;47.804;12.116;2023-04-06T05:19:38;19.30;;;10.77;;
25279;SDS011;13225;47.804;12.116;2023-04-06T05:22:05;19.65;;;10.63;;
25279;SDS011;13225;47.804;12.116;2023-04-06T05:24:31;27.90;;;12.00;;
25279;SDS011;13225;47.804;12.116;2023-04-06T05:26:56;19.90;;;10.90;;
25279;SDS011;13225;47.804;12.116;2023-04-06T05:29:22;22.88;;;11.60;;
25279;SDS011;13225;47.804;12.116;2023-04-06T05:31:48;27.27;;;12.07;;
25279;SDS011;13225;47.804;12.116;2023-04-06T05:34:13;23.10;;;11.25;;
25279;SDS011;13225;47.804;12.116;2023-04-06T05:36:39;21.23;;;11.30;;
25279;SDS011;13225;47.804;12.116;2023-04-06T05:39:05;23.80;;;11.27;;
25279;SDS011;13225;47.804;12.116;2023-04-06T05:41:32;23.10;;;10.48;;
25279;SDS011;13225;47.804;12.116;2023-04-06T05:43:58;22.20;;;10.65;;
25279;SDS011;13225;47.804;12.116;2023-04-06T05:46:23;15.27;;;10.15;;
25279;SDS011;13225;47.804;12.116;2023-04-06T05:48:49;25.95;;;11.05;;
25279;SDS011;13225;47.804;12.116;2023-04-06T05:51:14;20.42;;;10.32;;
25279;SDS011;13225;47.804;12.116;2023-04-06T05:53:40;25.50;;;10.90;;
25279;SDS011;13225;47.804;12.116;2023-04-06T05:56:06;27.02;;;11.55;;
25279;SDS011;13225;47.804;12.116;2023-04-06T05:58:32;21.75;;;11.05;;
25279;SDS011;13225;47.804;12.116;2023-04-06T06:01:00;24.42;;;10.75;;
25279;SDS011;13225;47.804;12.116;2023-04-06T06:03:26;21.08;;;10.38;;
25279;SDS011;13225;47.804;12.116;2023-04-06T06:05:52;19.13;;;10.32;;
25279;SDS011;13225;47.804;12.116;2023-04-06T06:08:17;16.15;;;10.07;;
25279;SDS011;13225;47.804;12.116;2023-04-06T06:10:43;19.05;;;10.70;;
25279;SDS011;13225;47.804;12.116;2023-04-06T06:13:09;17.75;;;9.75;;
25279;SDS011;13225;47.804;12.116;2023-04-06T06:15:34;20.98;;;10.52;;
25279;SDS011;13225;47.804;12.116;2023-04-06T06:18:00;25.15;;;10.82;;
25279;SDS011;13225;47.804;12.116;2023-04-06T06:20:26;16.48;;;10.45;;
25279;SDS011;13225;47.804;12.116;2023-04-06T06:22:52;15.73;;;9.68;;
25279;SDS011;13225;47.804;12.116;2023-04-06T06:25:18;21.70;;;13.13;;
25279;SDS011;13225;47.804;12.116;2023-04-06T06:27:43;22.20;;;14.57;;
25279;SDS011;13225;47.804;12.116;2023-04-06T06:30:10;20.30;;;11.80;;
25279;SDS011;13225;47.804;12.116;2023-04-06T06:32:37;22.00;;;12.75;;
25279;SDS011;13225;47.804;12.116;2023-04-06T06:35:03;19.00;;;10.95;;
25279;SDS011;13225;47.804;12.116;2023-04-06T06:37:29;31.23;;;14.93;;
25279;SDS011;13225;47.804;12.116;2023-04-06T06:39:54;21.30;;;13.25;;
25279;SDS011;13225;47.804;12.116;2023-04-06T06:42:20;23.33;;;14.07;;
25279;SDS011;13225;47.804;12.116;2023-04-06T06:44:45;17.73;;;11.02;;
25279;SDS011;13225;47.804;12.116;2023-04-06T06:47:11;26.25;;;14.35;;
25279;SDS011;13225;47.804;12.116;2023-04-06T06:49:37;14.30;;;9.13;;
25279;SDS011;13225;47.804;12.116;2023-04-06T06:52:02;18.50;;;9.35;;
25279;SDS011;13225;47.804;12.116;2023-04-06T06:54:28;15.85;;;9.70;;
25279;SDS011;13225;47.804;12.116;2023-04-06T06:56:54;27.80;;;14.93;;
25279;SDS011;13225;47.804;12.116;2023-04-06T06:59:20;24.25;;;13.70;;
25279;SDS011;13225;47.804;12.116;2023-04-06T07:01:45;18.05;;;10.50;;
25279;SDS011;13225;47.804;12.116;2023-04-06T07:04:11;20.13;;;10.90;;
25279;SDS011;13225;47.804;12.116;2023-04-06T07:06:37;16.33;;;10.00;;
25279;SDS011;13225;47.804;12.116;2023-04-06T07:09:02;14.82;;;8.40;;
25279;SDS011;13225;47.804;12.116;2023-04-06T07:11:28;15.75;;;10.18;;
25279;SDS011;13225;47.804;12.116;2023-04-06T07:13:55;16.90;;;9.30;;
25279;SDS011;13225;47.804;12.116;2023-04-06T07:16:20;15.48;;;8.88;;
25279;SDS011;13225;47.804;12.116;2023-04-06T07:18:46;16.00;;;10.18;;
25279;SDS011;13225;47.804;12.116;2023-04-06T07:21:12;15.63;;;9.40;;
25279;SDS011;13225;47.804;12.116;2023-04-06T07:23:38;12.63;;;8.70;;
25279;SDS011;13225;47.804;12.116;2023-04-06T07:26:03;15.05;;;8.88;;
25279;SDS011;13225;47.804;12.116;2023-04-06T07:28:29;13.25;;;7.72;;
25279;SDS011;13225;47.804;12.116;2023-04-06T07:30:55;14.02;;;9.40;;
25279;SDS011;13225;47.804;12.116;2023-04-06T07:33:21;16.30;;;9.30;;
25279;SDS011;13225;47.804;12.116;2023-04-06T07:35:46;14.32;;;9.48;;
25279;SDS011;13225;47.804;12.116;2023-04-06T07:38:12;15.85;;;9.15;;
25279;SDS011;13225;47.804;12.116;2023-04-06T07:40:38;18.25;;;10.85;;
25279;SDS011;13225;47.804;12.116;2023-04-06T07:43:04;16.40;;;9.23;;
25279;SDS011;13225;47.804;12.116;2023-04-06T07:45:30;12.30;;;7.72;;
25279;SDS011;13225;47.804;12.116;2023-04-06T07:47:56;13.63;;;9.13;;
25279;SDS011;13225;47.804;12.116;2023-04-06T07:50:21;16.90;;;9.93;;
25279;SDS011;13225;47.804;12.116;2023-04-06T07:52:47;12.48;;;7.93;;
25279;SDS011;13225;47.804;12.116;2023-04-06T07:55:12;10.55;;;7.75;;
25279;SDS011;13225;47.804;12.116;2023-04-06T07:57:38;13.73;;;7.55;;
25279;SDS011;13225;47.804;12.116;2023-04-06T08:00:04;11.55;;;8.32;;
25279;SDS011;13225;47.804;12.116;2023-04-06T08:02:31;12.43;;;8.90;;
25279;SDS011;13225;47.804;12.116;2023-04-06T08:04:57;12.98;;;9.15;;
25279;SDS011;13225;47.804;12.116;2023-04-06T08:07:22;17.95;;;8.40;;
25279;SDS011;13225;47.804;12.116;2023-04-06T08:09:48;9.65;;;6.13;;
25279;SDS011;13225;47.804;12.116;2023-04-06T08:12:13;17.63;;;8.07;;
25279;SDS011;13225;47.804;12.116;2023-04-06T08:14:39;11.75;;;7.55;;
25279;SDS011;13225;47.804;12.116;2023-04-06T08:17:05;14.23;;;8.38;;
25279;SDS011;13225;47.804;12.116;2023-04-06T08:19:31;32.17;;;15.45;;
25279;SDS011;13225;47.804;12.116;2023-04-06T08:21:56;14.38;;;8.20;;
25279;SDS011;13225;47.804;12.116;2023-04-06T08:24:22;13.13;;;8.30;;
25279;SDS011;13225;47.804;12.116;2023-04-06T08:26:48;12.95;;;7.72;;
25279;SDS011;13225;47.804;12.116;2023-04-06T08:29:13;11.68;;;7.55;;
25279;SDS011;13225;47.804;12.116;2023-04-06T08:31:39;12.27;;;8.15;;
25279;SDS011;13225;47.804;12.116;2023-04-06T08:34:05;15.85;;;7.22;;
25279;SDS011;13225;47.804;12.116;2023-04-06T08:36:31;20.73;;;9.05;;
25279;SDS011;13225;47.804;12.116;2023-04-06T08:38:57;14.00;;;8.85;;
25279;SDS011;13225;47.804;12.116;2023-04-06T08:41:23;14.38;;;9.02;;
25279;SDS011;13225;47.804;12.116;2023-04-06T08:43:51;16.13;;;7.93;;
25279;SDS011;13225;47.804;12.116;2023-04-06T08:46:21;13.40;;;8.57;;
25279;SDS011;13225;47.804;12.116;2023-04-06T08:48:54;16.58;;;8.30;;
25279;SDS011;13225;47.804;12.116;2023-04-06T08:51:21;11.45;;;7.68;;
25279;SDS011;13225;47.804;12.116;2023-04-06T08:53:49;12.48;;;8.15;;
25279;SDS011;13225;47.804;12.116;2023-04-06T08:56:15;13.57;;;7.80;;
25279;SDS011;13225;47.804;12.116;2023-04-06T08:58:41;14.88;;;8.60;;
25279;SDS011;13225;47.804;12.116;2023-04-06T09:01:08;12.07;;;8.82;;
25279;SDS011;13225;47.804;12.116;2023-04-06T09:03:39;14.68;;;7.65;;
25279;SDS011;13225;47.804;12.116;2023-04-06T09:06:06;14.10;;;8.23;;
25279;SDS011;13225;47.804;12.116;2023-04-06T09:08:33;11.65;;;7.55;;
25279;SDS011;13225;47.804;12.116;2023-04-06T09:11:00;11.63;;;7.38;;
25279;SDS011;13225;47.804;12.116;2023-04-06T09:13:27;12.98;;;7.90;;
25279;SDS011;13225;47.804;12.116;2023-04-06T09:16:02;13.50;;;7.93;;
25279;SDS011;13225;47.804;12.116;2023-04-06T09:18:30;13.27;;;9.15;;
25279;SDS011;13225;47.804;12.116;2023-04-06T09:21:06;15.40;;;8.52;;
25279;SDS011;13225;47.804;12.116;2023-04-06T09:23:33;10.38;;;7.47;;
25279;SDS011;13225;47.804;12.116;2023-04-06T09:26:12;12.05;;;7.55;;
25279;SDS011;13225;47.804;12.116;2023-04-06T09:28:52;12.63;;;7.43;;
25279;SDS011;13225;47.804;12.116;2023-04-06T09:31:23;13.15;;;7.25;;
25279;SDS011;13225;47.804;12.116;2023-04-06T09:33:49;9.35;;;6.22;;
25279;SDS011;13225;47.804;12.116;2023-04-06T09:36:15;9.35;;;7.05;;
25279;SDS011;13225;47.804;12.116;2023-04-06T09:38:54;10.13;;;6.97;;
25279;SDS011;13225;47.804;12.116;2023-04-06T09:41:28;13.35;;;7.53;;
25279;SDS011;13225;47.804;12.116;2023-04-06T09:44:09;12.23;;;6.85;;
25279;SDS011;13225;47.804;12.116;2023-04-06T09:46:39;9.35;;;5.82;;
25279;SDS011;13225;47.804;12.116;2023-04-06T09:49:09;10.63;;;7.03;;
25279;SDS011;13225;47.804;12.116;2023-04-06T09:51:37;10.82;;;6.22;;
25279;SDS011;13225;47.804;12.116;2023-04-06T09:54:05;10.38;;;7.03;;
25279;SDS011;13225;47.804;12.116;2023-04-06T09:56:51;10.65;;;6.82;;
25279;SDS011;13225;47.804;12.116;2023-04-06T09:59:30;12.73;;;7.80;;
25279;SDS011;13225;47.804;12.116;2023-04-06T10:02:07;9.70;;;5.30;;
25279;SDS011;13225;47.804;12.116;2023-04-06T10:07:04;13.80;;;8.60;;
25279;SDS011;13225;47.804;12.116;2023-04-06T10:09:30;11.60;;;7.82;;
25279;SDS011;13225;47.804;12.116;2023-04-06T10:12:02;14.10;;;8.80;;
25279;SDS011;13225;47.804;12.116;2023-04-06T10:14:34;13.10;;;8.70;;
25279;SDS011;13225;47.804;12.116;2023-04-06T10:17:03;13.50;;;8.50;;
25279;SDS011;13225;47.804;12.116;2023-04-06T10:19:32;6.85;;;5.05;;
25279;SDS011;13225;47.804;12.116;2023-04-06T10:22:08;9.05;;;6.10;;
25279;SDS011;13225;47.804;12.116;2023-04-06T10:24:41;12.38;;;8.60;;
25279;SDS011;13225;47.804;12.116;2023-04-06T10:27:07;10.20;;;6.18;;
25279;SDS011;13225;47.804;12.116;2023-04-06T10:29:45;13.02;;;8.20;;
25279;SDS011;13225;47.804;12.116;2023-04-06T10:32:13;12.80;;;9.13;;
25279;SDS011;13225;47.804;12.116;2023-04-06T10:34:39;12.10;;;7.60;;
25279;SDS011;13225;47.804;12.116;2023-04-06T10:37:14;13.73;;;8.80;;
25279;SDS011;13225;47.804;12.116;2023-04-06T10:40:02;11.55;;;8.85;;
25279;SDS011;13225;47.804;12.116;2023-04-06T10:42:36;12.27;;;8.25;;
25279;SDS011;13225;47.804;12.116;2023-04-06T10:45:06;12.88;;;7.78;;
25279;SDS011;13225;47.804;12.116;2023-04-06T10:47:43;12.88;;;7.80;;
25279;SDS011;13225;47.804;12.116;2023-04-06T10:50:10;13.95;;;8.23;;
25279;SDS011;13225;47.804;12.116;2023-04-06T10:52:39;10.80;;;7.38;;
25279;SDS011;13225;47.804;12.116;2023-04-06T10:55:04;18.42;;;9.73;;
25279;SDS011;13225;47.804;12.116;2023-04-06T10:57:33;12.93;;;8.43;;
25279;SDS011;13225;47.804;12.116;2023-04-06T10:59:59;15.77;;;9.00;;
25279;SDS011;13225;47.804;12.116;2023-04-06T11:02:25;11.82;;;8.38;;
25279;SDS011;13225;47.804;12.116;2023-04-06T11:04:57;12.30;;;7.10;;
25279;SDS011;13225;47.804;12.116;2023-04-06T11:07:24;12.38;;;8.30;;
25279;SDS011;13225;47.804;12.116;2023-04-06T11:09:55;14.48;;;9.38;;
25279;SDS011;13225;47.804;12.116;2023-04-06T11:12:25;13.10;;;8.68;;
25279;SDS011;13225;47.804;12.116;2023-04-06T11:14:52;19.65;;;8.43;;
25279;SDS011;13225;47.804;12.116;2023-04-06T11:17:27;13.20;;;8.98;;
25279;SDS011;13225;47.804;12.116;2023-04-06T11:19:54;13.80;;;8.82;;
25279;SDS011;13225;47.804;12.116;2023-04-06T11:22:20;10.90;;;8.15;;
25279;SDS011;13225;47.804;12.116;2023-04-06T11:24:46;12.35;;;9.05;;
25279;SDS011;13225;47.804;12.116;2023-04-06T11:27:13;13.85;;;9.35;;
25279;SDS011;13225;47.804;12.116;2023-04-06T11:29:42;12.70;;;8.90;;
25279;SDS011;13225;47.804;12.116;2023-04-06T11:32:08;14.50;;;9.02;;
25279;SDS011;13225;47.804;12.116;2023-04-06T11:34:36;12.05;;;7.70;;
25279;SDS011;13225;47.804;12.116;2023-04-06T11:37:04;12.95;;;8.52;;
25279;SDS011;13225;47.804;12.116;2023-04-06T11:39:37;12.32;;;8.55;;
25279;SDS011;13225;47.804;12.116;2023-04-06T11:42:06;12.90;;;8.32;;
25279;SDS011;13225;47.804;12.116;2023-04-06T11:47:14;12.77;;;8.50;;
25279;SDS011;13225;47.804;12.116;2023-04-06T11:49:40;10.45;;;8.13;;
25279;SDS011;13225;47.804;12.116;2023-04-06T11:54:47;9.35;;;6.88;;
25279;SDS011;13225;47.804;12.116;2023-04-06T11:57:14;10.13;;;6.90;;
25279;SDS011;13225;47.804;12.116;2023-04-06T11:59:41;9.40;;;7.18;;
25279;SDS011;13225;47.804;12.116;2023-04-06T12:02:07;10.25;;;7.10;;
25279;SDS011;13225;47.804;12.116;2023-04-06T12:04:33;11.43;;;6.18;;
25279;SDS011;13225;47.804;12.116;2023-04-06T12:06:59;11.23;;;7.50;;
25279;SDS011;13225;47.804;12.116;2023-04-06T12:09:25;13.38;;;8.23;;
25279;SDS011;13225;47.804;12.116;2023-04-06T12:11:51;9.27;;;7.07;;
25279;SDS011;13225;47.804;12.116;2023-04-06T12:14:17;9.13;;;6.82;;
25279;SDS011;13225;47.804;12.116;2023-04-06T12:16:42;10.65;;;6.85;;
25279;SDS011;13225;47.804;12.116;2023-04-06T12:19:08;12.73;;;8.52;;
25279;SDS011;13225;47.804;12.116;2023-04-06T12:21:34;9.27;;;7.10;;
25279;SDS011;13225;47.804;12.116;2023-04-06T12:24:03;12.23;;;7.55;;
25279;SDS011;13225;47.804;12.116;2023-04-06T12:26:30;13.05;;;8.63;;
25279;SDS011;13225;47.804;12.116;2023-04-06T12:28:56;13.82;;;8.13;;
25279;SDS011;13225;47.804;12.116;2023-04-06T12:31:22;12.30;;;8.15;;
25279;SDS011;13225;47.804;12.116;2023-04-06T12:33:50;9.57;;;7.55;;
25279;SDS011;13225;47.804;12.116;2023-04-06T12:36:17;10.23;;;7.90;;
25279;SDS011;13225;47.804;12.116;2023-04-06T12:38:44;9.73;;;7.70;;
25279;SDS011;13225;47.804;12.116;2023-04-06T12:41:13;10.18;;;7.85;;
25279;SDS011;13225;47.804;12.116;2023-04-06T12:43:40;10.05;;;7.43;;
25279;SDS011;13225;47.804;12.116;2023-04-06T12:46:06;8.88;;;6.57;;
25279;SDS011;13225;47.804;12.116;2023-04-06T12:48:32;9.35;;;7.32;;
25279;SDS011;13225;47.804;12.116;2023-04-06T12:50:58;11.13;;;6.93;;
25279;SDS011;13225;47.804;12.116;2023-04-06T12:53:27;9.35;;;7.50;;
25279;SDS011;13225;47.804;12.116;2023-04-06T12:55:56;10.15;;;7.72;;
25279;SDS011;13225;47.804;12.116;2023-04-06T12:58:22;14.02;;;8.02;;
25279;SDS011;13225;47.804;12.116;2023-04-06T13:00:49;13.48;;;8.07;;
25279;SDS011;13225;47.804;12.116;2023-04-06T13:03:15;8.50;;;6.03;;
25279;SDS011;13225;47.804;12.116;2023-04-06T13:05:45;12.75;;;8.35;;
25279;SDS011;13225;47.804;12.116;2023-04-06T13:08:12;11.90;;;8.10;;
25279;SDS011;13225;47.804;12.116;2023-04-06T13:10:42;10.27;;;8.13;;
25279;SDS011;13225;47.804;12.116;2023-04-06T13:13:08;12.10;;;8.05;;
25279;SDS011;13225;47.804;12.116;2023-04-06T13:15:34;10.30;;;8.13;;
25279;SDS011;13225;47.804;12.116;2023-04-06T13:18:01;14.07;;;8.38;;
25279;SDS011;13225;47.804;12.116;2023-04-06T13:20:27;9.50;;;7.57;;
25279;SDS011;13225;47.804;12.116;2023-04-06T13:22:53;9.43;;;7.72;;
25279;SDS011;13225;47.804;12.116;2023-04-06T13:25:18;10.40;;;7.35;;
25279;SDS011;13225;47.804;12.116;2023-04-06T13:27:45;10.23;;;7.53;;
25279;SDS011;13225;47.804;12.116;2023-04-06T13:30:12;8.88;;;7.65;;
25279;SDS011;13225;47.804;12.116;2023-04-06T13:32:38;11.80;;;7.60;;
25279;SDS011;13225;47.804;12.116;2023-04-06T13:35:04;10.10;;;7.50;;
25279;SDS011;13225;47.804;12.116;2023-04-06T13:37:31;10.77;;;7.93;;
25279;SDS011;13225;47.804;12.116;2023-04-06T13:39:57;11.25;;;7.28;;
25279;SDS011;13225;47.804;12.116;2023-04-06T13:42:23;8.95;;;7.20;;
25279;SDS011;13225;47.804;12.116;2023-04-06T13:44:48;10.00;;;6.75;;
25279;SDS011;13225;47.804;12.116;2023-04-06T13:47:15;10.02;;;7.10;;
25279;SDS011;13225;47.804;12.116;2023-04-06T13:49:42;11.20;;;7.40;;
25279;SDS011;13225;47.804;12.116;2023-04-06T13:52:08;8.82;;;6.93;;
25279;SDS011;13225;47.804;12.116;2023-04-06T13:54:35;10.45;;;7.72;;
25279;SDS011;13225;47.804;12.116;2023-04-06T13:57:01;11.05;;;7.43;;
25279;SDS011;13225;47.804;12.116;2023-04-06T13:59:36;8.80;;;7.20;;
25279;SDS011;13225;47.804;12.116;2023-04-06T14:02:02;11.20;;;7.70;;
25279;SDS011;13225;47.804;12.116;2023-04-06T14:04:29;11.77;;;7.72;;
25279;SDS011;13225;47.804;12.116;2023-04-06T14:06:55;10.43;;;7.10;;
25279;SDS011;13225;47.804;12.116;2023-04-06T14:09:21;10.25;;;7.22;;
25279;SDS011;13225;47.804;12.116;2023-04-06T14:11:47;9.80;;;7.00;;
25279;SDS011;13225;47.804;12.116;2023-04-06T14:14:13;12.05;;;7.57;;
25279;SDS011;13225;47.804;12.116;2023-04-06T14:16:39;9.38;;;7.03;;
25279;SDS011;13225;47.804;12.116;2023-04-06T14:19:06;16.02;;;11.02;;
25279;SDS011;13225;47.804;12.116;2023-04-06T14:21:32;9.48;;;7.35;;
25279;SDS011;13225;47.804;12.116;2023-04-06T14:23:57;9.50;;;7.43;;